Time;durP1;ratioP1;P1;durP2;ratioP2;P2;SDS_P1;SDS_P2;PMS_P1;PMS_P2;Temp;Humidity;BMP_temperature;BMP_pressure;BME280_temperature;BME280_humidity;BME280_pressure;Samples;Min_cycle;Max_cycle;Signal;HPM_P1;HPM_P2
2023/07/07 00:01:56;;;;;;;6.28;4.60;;;;;;;23.07;71.36;99141.06;4923279;29;20055;-90
2023/07/07 00:04:21;;;;;;;6.30;4.28;;;;;;;23.19;71.05;99156.63;4908023;29;20031;-90
2023/07/07 00:06:47;;;;;;;6.50;4.60;;;;;;;23.28;71.18;99156.41;4907119;29;20170;-90
2023/07/07 00:09:12;;;;;;;7.13;5.10;;;;;;;23.15;71.69;99156.53;4906808;29;20505;-90
2023/07/07 00:11:38;;;;;;;5.72;4.97;;;;;;;23.03;72.06;99153.91;4908171;29;20032;-90
2023/07/07 00:14:03;;;;;;;7.03;5.30;;;;;;;23.09;71.87;99165.41;4907233;29;20040;-88
2023/07/07 00:16:29;;;;;;;7.00;5.13;;;;;;;22.95;71.81;99155.69;4908113;29;20118;-90
2023/07/07 00:18:55;;;;;;;8.15;5.38;;;;;;;22.86;72.38;99151.53;4907127;29;20078;-90
2023/07/07 00:21:24;;;;;;;6.70;5.00;;;;;;;22.90;72.65;99163.38;4908589;29;20046;-90
2023/07/07 00:23:56;;;;;;;11.07;5.18;;;;;;;22.89;72.31;99154.38;4907207;29;20023;-90
2023/07/07 00:26:22;;;;;;;11.60;5.20;;;;;;;22.95;72.25;99157.63;4906878;29;20015;-90
2023/07/07 00:28:48;;;;;;;8.05;5.10;;;;;;;22.98;72.35;99157.69;4907233;29;20055;-91
2023/07/07 00:31:14;;;;;;;8.88;5.57;;;;;;;22.88;72.20;99157.47;4907942;29;20517;-90
2023/07/07 00:33:39;;;;;;;8.23;5.40;;;;;;;22.81;72.27;99152.59;4906509;29;20118;-90
2023/07/07 00:36:05;;;;;;;6.93;4.93;;;;;;;22.75;72.65;99149.31;4907737;29;20514;-91
2023/07/07 00:38:30;;;;;;;9.98;5.85;;;;;;;22.62;72.76;99152.50;4907142;29;20517;-90
2023/07/07 00:40:59;;;;;;;8.73;5.00;;;;;;;22.61;72.94;99157.19;4908429;29;20035;-90
2023/07/07 00:43:25;;;;;;;7.15;5.10;;;;;;;22.58;73.19;99166.94;4907495;29;20027;-90
2023/07/07 00:45:50;;;;;;;8.07;5.15;;;;;;;22.52;73.26;99164.81;4906544;29;20031;-90
2023/07/07 00:48:37;;;;;;;7.05;4.97;;;;;;;22.51;73.38;99155.78;4923629;29;20038;-90
2023/07/07 00:51:14;;;;;;;7.95;5.47;;;;;;;22.54;73.61;99162.53;4907138;29;20035;-90
2023/07/07 00:53:39;;;;;;;6.55;5.43;;;;;;;22.45;73.50;99143.47;4922809;29;20030;-91
2023/07/07 00:56:06;;;;;;;6.63;5.13;;;;;;;22.44;73.70;99143.84;4922925;29;20024;-90
2023/07/07 00:58:31;;;;;;;8.02;5.50;;;;;;;22.40;74.21;99149.25;4922971;29;20110;-90
2023/07/07 01:01:02;;;;;;;7.60;5.35;;;;;;;22.44;73.77;99146.59;4907068;29;20110;-90
2023/07/07 01:03:52;;;;;;;7.20;5.40;;;;;;;22.42;73.57;99152.44;4923309;29;20047;-90
2023/07/07 01:06:21;;;;;;;7.18;5.30;;;;;;;22.33;73.71;99147.13;4897509;29;20133;-90
2023/07/07 01:08:47;;;;;;;7.53;5.20;;;;;;;22.29;74.41;99143.47;4907175;29;20032;-90
2023/07/07 01:11:16;;;;;;;7.03;5.63;;;;;;;22.29;73.93;99146.22;4906255;29;20036;-90
2023/07/07 01:13:42;;;;;;;6.82;5.28;;;;;;;22.08;74.91;99156.59;4906342;29;20036;-90
2023/07/07 01:16:19;;;;;;;8.10;5.43;;;;;;;22.13;74.99;99164.56;4905998;29;20024;-90
2023/07/07 01:19:24;;;;;;;9.05;5.90;;;;;;;22.07;75.36;99160.47;4921600;29;20087;-90
2023/07/07 01:21:52;;;;;;;7.57;5.35;;;;;;;22.05;74.86;99160.03;4890742;29;20027;-90
2023/07/07 01:24:52;;;;;;;10.57;5.78;;;;;;;22.09;74.96;99163.69;4923428;29;20036;-90
2023/07/07 01:27:35;;;;;;;9.00;6.03;;;;;;;21.97;75.42;99161.78;4904669;29;20063;-90
2023/07/07 01:30:36;;;;;;;7.65;6.15;;;;;;;21.92;75.37;99156.56;4922607;29;20031;-90
2023/07/07 01:33:03;;;;;;;8.88;7.53;;;;;;;21.85;76.38;99157.16;4938044;29;20027;-90
2023/07/07 01:35:28;;;;;;;13.80;9.20;;;;;;;21.78;76.49;99146.00;4906197;29;20036;-90
2023/07/07 01:37:56;;;;;;;12.48;7.78;;;;;;;21.79;76.48;99147.59;4907209;29;20028;-90
2023/07/07 01:40:43;;;;;;;8.70;6.90;;;;;;;21.79;76.05;99147.59;4908086;29;20482;-90
2023/07/07 01:43:23;;;;;;;8.05;6.85;;;;;;;21.82;76.24;99148.84;4907223;29;20084;-90
2023/07/07 01:46:11;;;;;;;11.88;6.78;;;;;;;21.83;76.53;99153.16;4907149;29;20034;-90
2023/07/07 01:48:40;;;;;;;14.23;8.52;;;;;;;21.85;76.37;99153.63;4922549;29;20079;-91
2023/07/07 01:51:06;;;;;;;14.93;8.82;;;;;;;21.99;75.64;99152.06;4922176;29;20035;-90
2023/07/07 01:53:31;;;;;;;17.95;9.40;;;;;;;21.84;76.17;99139.13;4906878;29;20039;-90
2023/07/07 01:55:57;;;;;;;17.45;10.60;;;;;;;21.84;76.41;99141.06;4906588;29;20032;-90
2023/07/07 01:58:23;;;;;;;14.43;10.63;;;;;;;21.73;76.62;99132.56;4907362;29;20035;-90
2023/07/07 02:00:49;;;;;;;16.13;10.43;;;;;;;21.90;76.21;99151.41;4922367;29;20035;-90
2023/07/07 02:03:14;;;;;;;14.85;10.13;;;;;;;21.88;76.13;99141.97;4921048;29;20090;-91
2023/07/07 02:05:40;;;;;;;20.17;10.05;;;;;;;21.92;75.91;99153.81;4922326;29;20035;-91
2023/07/07 02:08:05;;;;;;;18.15;11.48;;;;;;;21.93;76.24;99156.19;4922302;29;20066;-91
2023/07/07 02:10:31;;;;;;;22.38;11.57;;;;;;;21.83;76.09;99148.50;4922006;29;20034;-90
2023/07/07 02:12:56;;;;;;;17.73;12.07;;;;;;;21.80;76.51;99138.22;4922520;29;20027;-90
2023/07/07 02:15:22;;;;;;;16.10;10.10;;;;;;;21.82;76.67;99144.16;4923334;29;20027;-90
2023/07/07 02:17:48;;;;;;;14.38;9.63;;;;;;;21.84;76.73;99152.03;4921437;29;20024;-90
2023/07/07 02:20:13;;;;;;;15.68;9.50;;;;;;;21.83;76.35;99142.19;4922199;29;20055;-90
2023/07/07 02:22:39;;;;;;;11.85;8.35;;;;;;;21.80;76.19;99163.69;4922262;29;20055;-90
2023/07/07 02:25:05;;;;;;;13.35;8.85;;;;;;;21.77;76.25;99147.94;4922406;29;20501;-90
2023/07/07 02:27:31;;;;;;;13.85;9.10;;;;;;;21.89;76.11;99152.56;4921834;29;20019;-90
2023/07/07 02:29:56;;;;;;;14.57;9.25;;;;;;;21.99;75.07;99148.53;4922009;29;20414;-89
2023/07/07 02:32:21;;;;;;;10.35;7.65;;;;;;;22.10;74.87;99152.38;4920522;29;20062;-90
2023/07/07 02:34:47;;;;;;;11.38;7.85;;;;;;;22.22;74.48;99154.22;4925620;29;20032;-90
2023/07/07 02:37:15;;;;;;;11.30;7.72;;;;;;;21.96;75.39;99150.03;4924982;29;20063;-90
2023/07/07 02:39:40;;;;;;;15.48;8.05;;;;;;;21.87;75.05;99157.63;4923123;29;20056;-90
2023/07/07 02:42:06;;;;;;;10.85;8.02;;;;;;;21.86;75.16;99171.66;4911622;29;20043;-90
2023/07/07 02:44:31;;;;;;;12.93;8.82;;;;;;;21.79;75.92;99161.31;4914653;29;20474;-90
2023/07/07 02:46:57;;;;;;;11.85;8.15;;;;;;;21.72;75.98;99158.34;4925439;29;20035;-90
2023/07/07 02:49:22;;;;;;;14.68;7.80;;;;;;;21.61;76.26;99155.31;4924205;29;20026;-90
2023/07/07 02:51:48;;;;;;;9.95;7.53;;;;;;;21.69;76.08;99162.59;4924908;29;20535;-90
2023/07/07 02:54:13;;;;;;;15.00;7.70;;;;;;;21.65;75.79;99164.44;4925246;29;20023;-90
2023/07/07 02:56:39;;;;;;;10.90;8.23;;;;;;;21.66;76.02;99173.44;4925449;29;20032;-90
2023/07/07 02:59:05;;;;;;;10.70;8.27;;;;;;;21.60;76.12;99178.34;4925083;29;20028;-90
2023/07/07 03:01:32;;;;;;;11.90;7.78;;;;;;;21.67;76.32;99192.28;4925229;29;20056;-88
2023/07/07 03:03:58;;;;;;;12.93;7.05;;;;;;;21.68;76.06;99182.91;4925038;29;20430;-90
2023/07/07 03:06:23;;;;;;;9.38;7.13;;;;;;;21.73;75.94;99179.16;4925128;29;20028;-90
2023/07/07 03:08:49;;;;;;;10.40;7.20;;;;;;;21.79;75.61;99197.72;4924527;29;20475;-90
2023/07/07 03:11:16;;;;;;;9.00;6.68;;;;;;;21.88;75.03;99189.34;4924496;29;20040;-91
2023/07/07 03:13:43;;;;;;;7.88;6.15;;;;;;;22.02;74.24;99182.66;4941538;29;20051;-90
2023/07/07 03:16:20;;;;;;;14.23;7.95;;;;;;;22.04;75.10;99205.88;4925091;29;20094;-90
2023/07/07 03:18:50;;;;;;;10.32;7.18;;;;;;;22.02;75.08;99194.44;4924738;29;20028;-90
2023/07/07 03:21:17;;;;;;;9.10;7.22;;;;;;;22.04;74.80;99205.88;4925099;29;20051;-90
2023/07/07 03:23:43;;;;;;;11.82;7.45;;;;;;;21.99;74.71;99187.69;4939967;29;20032;-90
2023/07/07 03:26:10;;;;;;;12.15;8.07;;;;;;;21.94;74.98;99201.66;4924518;29;20036;-90
2023/07/07 03:28:36;;;;;;;11.20;7.80;;;;;;;21.85;75.25;99208.44;4924411;29;20027;-90
2023/07/07 03:31:11;;;;;;;14.38;7.97;;;;;;;21.89;74.76;99198.38;4924546;29;20501;-91
2023/07/07 03:33:41;;;;;;;13.90;7.45;;;;;;;21.90;74.62;99199.97;4940486;29;20032;-91
2023/07/07 03:36:08;;;;;;;9.73;8.30;;;;;;;21.91;75.22;99207.84;4924061;29;20051;-90
2023/07/07 03:38:35;;;;;;;10.98;7.90;;;;;;;21.80;75.47;99206.75;4923272;29;20031;-90
2023/07/07 03:41:01;;;;;;;11.90;7.57;;;;;;;21.55;76.31;99200.53;4924957;29;20458;-91
2023/07/07 03:43:26;;;;;;;12.68;7.88;;;;;;;21.54;76.68;99212.63;4924836;29;20035;-90
2023/07/07 03:45:52;;;;;;;10.15;7.35;;;;;;;21.53;76.85;99213.78;4923392;29;20032;-91
2023/07/07 03:48:17;;;;;;;11.80;8.10;;;;;;;21.56;76.98;99222.13;4923649;29;20082;-90
2023/07/07 03:50:43;;;;;;;9.48;7.57;;;;;;;21.43;77.16;99209.56;4924430;29;20016;-91
2023/07/07 03:53:08;;;;;;;10.77;7.40;;;;;;;21.50;76.94;99214.44;4925055;29;20032;-91
2023/07/07 03:55:34;;;;;;;9.32;7.60;;;;;;;21.51;76.80;99211.38;4923875;29;20040;-90
2023/07/07 03:57:59;;;;;;;13.73;8.02;;;;;;;21.50;76.60;99214.44;4924416;29;20027;-91
2023/07/07 04:00:24;;;;;;;10.43;7.38;;;;;;;21.57;76.47;99218.22;4923984;29;20039;-91
2023/07/07 04:02:50;;;;;;;11.13;7.75;;;;;;;21.64;76.30;99214.09;4923857;29;20059;-91
2023/07/07 04:05:15;;;;;;;9.82;7.25;;;;;;;21.83;76.03;99232.66;4918014;29;20039;-92
2023/07/07 04:07:41;;;;;;;15.05;7.50;;;;;;;21.96;75.32;99226.00;4905767;29;20047;-92
2023/07/07 04:10:08;;;;;;;8.88;7.18;;;;;;;21.96;74.71;99213.09;4919000;29;20070;-94
2023/07/07 04:12:34;;;;;;;14.40;7.43;;;;;;;22.19;74.16;99226.25;4924915;29;20075;-92
2023/07/07 04:15:00;;;;;;;8.32;6.90;;;;;;;22.30;73.62;99218.34;4925645;29;20055;-94
2023/07/07 04:17:26;;;;;;;11.65;7.65;;;;;;;22.43;72.87;99216.31;4925731;29;20033;-93
2023/07/07 04:20:14;;;;;;;11.10;6.95;;;;;;;22.56;71.59;99218.66;4927236;29;20044;-95
2023/07/07 04:22:39;;;;;;;12.90;6.80;;;;;;;22.59;71.21;99206.94;4926247;29;20122;-94
2023/07/07 04:25:15;;;;;;;12.35;7.10;;;;;;;22.82;70.51;99225.56;4912569;29;20031;-95
2023/07/07 04:27:41;;;;;;;13.27;6.57;;;;;;;23.04;69.85;99232.41;4906774;29;20028;-93
2023/07/07 04:30:07;;;;;;;10.50;6.68;;;;;;;23.15;69.31;99229.91;4908014;29;20082;-95
2023/07/07 04:32:32;;;;;;;11.18;6.68;;;;;;;23.33;68.58;99214.66;4925281;29;20086;-91
2023/07/07 04:34:59;;;;;;;9.60;6.53;;;;;;;23.54;67.86;99221.78;4920602;29;20036;-92
2023/07/07 04:37:28;;;;;;;10.27;6.78;;;;;;;23.76;67.79;99226.63;4918019;29;20032;-92
2023/07/07 04:39:53;;;;;;;15.30;6.95;;;;;;;23.73;68.74;99221.78;4920382;29;20483;-94
2023/07/07 04:42:19;;;;;;;11.95;6.15;;;;;;;23.63;68.61;99236.09;4912372;29;20043;-93
2023/07/07 04:44:46;;;;;;;26.75;7.15;;;;;;;23.64;68.37;99226.72;4907244;29;20054;-94
2023/07/07 04:47:12;;;;;;;10.18;6.97;;;;;;;23.72;68.21;99238.63;4939181;29;20095;-95
2023/07/07 04:49:37;;;;;;;10.40;7.07;;;;;;;23.82;67.84;99246.34;4911111;29;20034;-93
2023/07/07 04:52:03;;;;;;;14.07;7.60;;;;;;;23.66;67.67;99218.09;4913565;29;20030;-95
2023/07/07 04:54:28;;;;;;;26.30;10.25;;;;;;;23.75;67.83;99237.94;4919826;29;20103;-93
2023/07/07 04:56:54;;;;;;;31.20;11.05;;;;;;;23.73;67.69;99241.03;4910139;29;20035;-93
2023/07/07 04:59:19;;;;;;;28.95;13.95;;;;;;;23.59;67.98;99237.97;4886953;29;20060;-94
2023/07/07 05:01:45;;;;;;;21.45;12.63;;;;;;;23.61;68.14;99235.66;4908339;29;20083;-91
2023/07/07 05:04:11;;;;;;;17.38;13.00;;;;;;;23.76;67.23;99240.34;4909953;29;20068;-89
2023/07/07 05:06:37;;;;;;;22.60;17.10;;;;;;;23.86;67.11;99235.44;4911956;29;20047;-90
2023/07/07 05:09:06;;;;;;;24.48;16.30;;;;;;;23.96;66.50;99230.16;4912284;29;20490;-90
2023/07/07 05:11:32;;;;;;;20.38;15.73;;;;;;;24.21;65.84;99232.59;4918279;29;20576;-92
2023/07/07 05:13:58;;;;;;;26.92;17.45;;;;;;;24.28;65.76;99234.69;4923049;29;20454;-94
2023/07/07 05:16:26;;;;;;;29.98;19.10;;;;;;;24.26;65.85;99226.81;4905794;29;20034;-92
2023/07/07 05:18:51;;;;;;;27.60;16.38;;;;;;;24.31;65.26;99220.22;4908540;29;20034;-94
2023/07/07 05:21:18;;;;;;;18.98;15.57;;;;;;;24.27;65.19;99233.13;4907711;29;20118;-93
2023/07/07 05:23:44;;;;;;;21.73;14.30;;;;;;;24.15;65.80;99225.81;4906815;29;20028;-94
2023/07/07 05:26:09;;;;;;;17.33;13.52;;;;;;;24.07;66.07;99221.31;4911458;29;20537;-90
2023/07/07 05:28:35;;;;;;;21.23;14.00;;;;;;;24.15;66.04;99229.34;4914121;29;20032;-93
2023/07/07 05:31:01;;;;;;;16.35;10.30;;;;;;;23.95;65.78;99216.78;4912424;29;20078;-91
2023/07/07 05:33:27;;;;;;;34.83;31.20;;;;;;;24.02;66.67;99216.91;4915063;29;20067;-92
2023/07/07 05:35:59;;;;;;;11.55;8.38;;;;;;;24.12;65.77;99223.78;4910094;29;20107;-90
2023/07/07 05:38:25;;;;;;;13.23;8.40;;;;;;;24.27;65.63;99230.38;4907835;29;20028;-92
2023/07/07 05:40:53;;;;;;;14.05;9.73;;;;;;;24.30;64.92;99207.59;4925771;29;20028;-90
2023/07/07 05:43:20;;;;;;;13.60;8.82;;;;;;;24.49;64.22;99218.63;4923888;29;20034;-89
2023/07/07 05:45:53;;;;;;;10.52;7.90;;;;;;;24.62;63.82;99226.72;4901547;29;20028;-92
2023/07/07 05:48:21;;;;;;;13.43;8.40;;;;;;;24.67;63.19;99229.16;4915830;29;20016;-92
2023/07/07 05:50:47;;;;;;;11.43;7.57;;;;;;;24.68;61.74;99216.97;4902819;29;20020;-93
2023/07/07 05:53:13;;;;;;;9.73;7.40;;;;;;;25.13;61.67;99251.16;4926691;29;20039;-91
2023/07/07 05:55:38;;;;;;;14.65;7.13;;;;;;;25.32;60.58;99259.38;4895576;29;20020;-89
2023/07/07 05:58:11;;;;;;;8.40;5.97;;;;;;;25.30;58.38;99227.84;4901367;29;20032;-92
2023/07/07 06:00:38;;;;;;;9.88;6.03;;;;;;;25.51;58.35;99232.88;4912321;29;20028;-89
2023/07/07 06:03:03;;;;;;;12.75;8.60;;;;;;;25.51;57.44;99210.81;4924343;29;20052;-93
2023/07/07 06:05:29;;;;;;;23.67;6.97;;;;;;;25.60;57.04;99245.19;4923173;29;20023;-91
2023/07/07 06:07:56;;;;;;;14.63;7.47;;;;;;;25.68;57.55;99242.56;4927647;29;20026;-93
2023/07/07 06:10:24;;;;;;;9.48;6.30;;;;;;;25.80;56.56;99239.56;4919046;29;20042;-91
2023/07/07 06:12:51;;;;;;;9.88;6.22;;;;;;;25.73;57.20;99220.16;4920100;29;20031;-92
2023/07/07 06:15:16;;;;;;;15.02;6.50;;;;;;;25.84;56.63;99215.56;4927622;29;20035;-92
2023/07/07 06:17:44;;;;;;;7.43;5.50;;;;;;;25.95;56.36;99215.72;4919746;29;20028;-92
2023/07/07 06:20:11;;;;;;;10.13;7.28;;;;;;;25.95;55.88;99227.56;4909789;29;20055;-91
2023/07/07 06:25:59;;;;;;;12.38;7.40;;;;;;;26.19;56.09;99233.75;4930022;29;20047;-91
2023/07/07 06:28:25;;;;;;;11.15;6.00;;;;;;;26.18;54.69;99218.34;4913614;29;20028;-92
2023/07/07 06:30:51;;;;;;;8.90;6.63;;;;;;;26.36;54.96;99222.09;4941983;29;20390;-90
2023/07/07 06:33:42;;;;;;;16.25;9.93;;;;;;;26.57;54.91;99242.84;4917009;29;20028;-94
2023/07/07 06:36:11;;;;;;;9.13;6.10;;;;;;;26.50;53.69;99229.75;4935409;29;20065;-92
2023/07/07 06:39:28;;;;;;;10.48;6.22;;;;;;;26.53;54.36;99230.94;4908753;29;20047;-92
2023/07/07 06:42:15;;;;;;;15.60;10.05;;;;;;;26.76;52.53;99230.81;4897042;29;20048;-96
2023/07/07 06:44:41;;;;;;;16.88;12.23;;;;;;;26.73;51.49;99221.31;4928100;29;20088;-93
2023/07/07 06:47:14;;;;;;;8.52;6.03;;;;;;;26.76;51.72;99220.53;4894500;29;20032;-93
2023/07/07 06:49:40;;;;;;;11.27;5.88;;;;;;;26.71;52.47;99201.56;4911402;29;20027;-89
2023/07/07 06:52:11;;;;;;;11.05;6.38;;;;;;;26.91;51.41;99213.16;4926407;29;20184;-91
2023/07/07 06:54:40;;;;;;;;;;;;;;;27.17;51.12;99239.81;4909384;29;20032;-91
2023/07/07 06:57:06;;;;;;;8.98;5.95;;;;;;;27.21;51.53;99224.06;4924547;29;19895;-92
2023/07/07 06:59:34;;;;;;;8.35;5.80;;;;;;;27.39;51.78;99220.63;4915463;29;20028;-92
2023/07/07 07:02:00;;;;;;;6.72;5.07;;;;;;;27.51;49.85;99214.78;4910719;29;20126;-94
2023/07/07 07:04:28;;;;;;;7.93;5.80;;;;;;;27.56;49.72;99225.50;4923699;29;20123;-96
2023/07/07 07:06:54;;;;;;;9.32;6.63;;;;;;;27.81;49.45;99246.97;4929640;29;20027;-95
2023/07/07 07:09:23;;;;;;;18.55;12.95;;;;;;;27.81;49.46;99231.16;4928975;29;20035;-93
2023/07/07 07:11:54;;;;;;;11.07;9.15;;;;;;;27.77;49.54;99221.25;4927813;29;20028;-95
2023/07/07 07:14:20;;;;;;;6.55;5.43;;;;;;;27.90;48.71;99239.09;4907113;29;20043;-93
2023/07/07 07:16:51;;;;;;;8.02;5.65;;;;;;;27.82;49.45;99243.78;4909311;29;20091;-96
2023/07/07 07:19:20;;;;;;;8.85;6.30;;;;;;;27.73;49.47;99206.59;4896089;29;20056;-93
2023/07/07 07:21:51;;;;;;;6.78;5.30;;;;;;;27.77;49.35;99224.00;4876055;29;20028;-93
2023/07/07 07:24:18;;;;;;;7.20;6.25;;;;;;;27.87;49.07;99233.56;4878144;29;20041;-95
2023/07/07 07:26:44;;;;;;;6.80;5.38;;;;;;;28.02;48.89;99229.69;4873622;29;20033;-95
2023/07/07 07:29:14;;;;;;;7.97;5.20;;;;;;;28.02;48.23;99221.38;4879829;29;20057;-93
2023/07/07 07:31:46;;;;;;;6.82;5.25;;;;;;;28.21;48.30;99231.31;4892960;29;20045;-92
2023/07/07 07:34:29;;;;;;;9.10;5.18;;;;;;;28.09;48.88;99229.69;4902491;29;20077;-96
2023/07/07 07:44:47;;;;;;;7.97;5.10;;;;;;;28.19;47.73;99256.63;4822437;29;20045;-95
2023/07/07 07:47:14;;;;;;;6.53;5.28;;;;;;;27.92;47.40;99228.44;4818282;29;20027;-95
2023/07/07 07:49:44;;;;;;;9.25;5.38;;;;;;;28.15;47.66;99243.94;4796076;29;20053;-96
2023/07/07 07:52:42;;;;;;;9.18;5.60;;;;;;;28.15;47.36;99244.75;4842519;29;20070;-96
2023/07/07 07:55:13;;;;;;;6.20;5.20;;;;;;;28.15;47.76;99228.13;4955960;23;20051;-94
2023/07/07 07:57:43;;;;;;;8.65;6.05;;;;;;;28.22;48.23;99227.34;4924892;29;20075;-96
2023/07/07 08:00:17;;;;;;;8.57;5.20;;;;;;;28.35;47.81;99220.28;4938667;29;20047;-96
2023/07/07 08:03:00;;;;;;;7.53;5.20;;;;;;;28.66;46.90;99242.91;4931553;29;20047;-96
2023/07/07 08:05:30;;;;;;;10.88;5.20;;;;;;;28.77;46.67;99260.34;4899519;29;20035;-94
2023/07/07 08:07:57;;;;;;;6.88;5.28;;;;;;;28.61;46.72;99241.31;4879296;29;20071;-94
2023/07/07 08:10:23;;;;;;;6.60;5.68;;;;;;;28.65;46.56;99226.69;4911683;29;20055;-94
2023/07/07 08:12:48;;;;;;;8.00;5.38;;;;;;;28.76;46.94;99247.69;4913102;29;20146;-94
2023/07/07 08:15:44;;;;;;;;;;;;;;;;;;;;;
2023/07/07 08:18:13;;;;;;;7.28;5.30;;;;;;;28.85;46.16;99246.50;4886717;29;20075;-96
2023/07/07 08:20:42;;;;;;;11.63;9.77;;;;;;;28.65;46.17;99241.31;4897831;29;20054;-95
2023/07/07 08:38:04;;;;;;;8.27;5.50;;;;;;;28.25;46.69;99234.88;4931764;29;20088;-95
2023/07/07 08:50:32;;;;;;;;;;;;;;;28.93;46.38;99253.59;4892421;29;20042;-95
2023/07/07 08:53:01;;;;;;;7.50;5.70;;;;;;;28.81;46.17;99247.28;4878015;29;19985;-96
2023/07/07 08:55:35;;;;;;;9.32;6.70;;;;;;;28.79;46.67;99229.47;4920973;29;20046;-96
2023/07/07 09:08:36;;;;;;;6.32;4.93;;;;;;;29.35;45.18;99230.66;4882172;29;19922;-96
2023/07/07 09:11:34;;;;;;;9.25;6.38;;;;;;;29.55;45.62;99210.78;4860117;29;20045;-94
2023/07/07 09:13:59;;;;;;;9.32;5.63;;;;;;;29.74;45.47;99231.78;4898469;29;20048;-95
2023/07/07 09:16:39;;;;;;;7.35;5.60;;;;;;;29.79;44.63;99221.03;4900393;29;20073;-94
2023/07/07 09:19:13;;;;;;;7.82;5.68;;;;;;;29.95;44.58;99237.22;4910516;29;20067;-96
2023/07/07 09:21:43;;;;;;;8.73;5.50;;;;;;;30.01;44.55;99246.72;4915519;29;20047;-95
2023/07/07 09:24:31;;;;;;;8.67;5.30;;;;;;;29.99;43.42;99242.78;4932919;29;20119;-96
2023/07/07 09:26:59;;;;;;;9.63;5.25;;;;;;;29.98;43.40;99225.31;4945614;29;20042;-95
2023/07/07 09:29:30;;;;;;;8.05;5.85;;;;;;;30.04;43.76;99224.91;4911308;29;20028;-93
2023/07/07 09:32:02;;;;;;;7.00;5.65;;;;;;;29.95;44.19;99214.25;4915939;29;20028;-92
2023/07/07 09:34:28;;;;;;;13.93;10.85;;;;;;;30.00;44.49;99231.25;4914681;29;20039;-94
2023/07/07 09:37:34;;;;;;;14.70;6.07;;;;;;;29.95;45.41;99228.13;4913000;29;20023;-96
2023/07/07 09:40:41;;;;;;;6.40;5.53;;;;;;;29.98;43.99;99214.19;4947378;29;20043;-96
2023/07/07 09:43:17;;;;;;;6.53;5.80;;;;;;;30.11;43.68;99227.63;4925047;29;20044;-91
2023/07/07 09:46:20;;;;;;;8.45;5.60;;;;;;;29.81;44.77;99210.31;4918593;29;20038;-92
2023/07/07 09:49:00;;;;;;;6.10;5.40;;;;;;;29.89;44.47;99213.06;4897035;29;20035;-93
2023/07/07 09:51:43;;;;;;;8.40;5.57;;;;;;;29.94;44.19;99226.53;4916284;29;20100;-92
2023/07/07 09:54:13;;;;;;;7.95;5.78;;;;;;;29.95;44.30;99222.56;4926240;29;20035;-94
2023/07/07 09:56:58;;;;;;;6.50;5.55;;;;;;;29.89;44.33;99196.41;4930452;29;20031;-91
2023/07/07 09:59:29;;;;;;;8.43;5.93;;;;;;;29.93;43.88;99205.53;4931072;29;20093;-92
2023/07/07 10:01:55;;;;;;;7.18;5.40;;;;;;;29.94;44.09;99195.97;4913133;29;20043;-92
2023/07/07 10:04:24;;;;;;;8.10;5.60;;;;;;;29.73;44.43;99200.44;4919129;29;20044;-90
2023/07/07 10:07:05;;;;;;;10.73;8.15;;;;;;;29.60;45.24;99194.50;4916348;29;20024;-93
2023/07/07 10:09:31;;;;;;;;;;;;;;;29.73;46.18;99221.84;4915118;29;20035;-91
2023/07/07 10:12:00;;;;;;;6.88;5.47;;;;;;;29.54;44.46;99221.09;4924353;29;20020;-90
2023/07/07 10:15:10;;;;;;;10.25;6.25;;;;;;;29.36;45.17;99179.50;4911022;29;20033;-92
2023/07/07 10:18:10;;;;;;;6.63;5.53;;;;;;;29.35;45.12;99177.94;4904356;29;20062;-93
2023/07/07 10:20:40;;;;;;;7.55;5.85;;;;;;;29.29;45.75;99190.63;4883569;29;20068;-92
2023/07/07 10:24:20;;;;;;;9.27;5.85;;;;;;;29.33;46.37;99207.28;4917839;29;20087;-92
2023/07/07 10:26:27;;;;;;;7.20;5.78;;;;;;;29.37;45.74;99216.38;4935231;29;20090;-96
2023/07/07 10:28:57;;;;;;;9.20;5.32;;;;;;;29.29;45.27;99198.16;4930039;29;20027;-94
2023/07/07 10:31:23;;;;;;;11.85;5.80;;;;;;;29.28;45.01;99189.06;4910897;29;20023;-91
2023/07/07 10:34:35;;;;;;;9.63;6.47;;;;;;;29.40;44.79;99212.78;4912326;29;20031;-91
2023/07/07 10:37:11;;;;;;;6.93;5.38;;;;;;;29.45;44.83;99204.06;4928769;29;20047;-94
2023/07/07 10:39:36;;;;;;;7.80;5.78;;;;;;;29.47;44.13;99168.41;4929117;29;20028;-91
2023/07/07 10:42:15;;;;;;;7.65;5.30;;;;;;;29.78;44.53;99197.25;4913130;29;20040;-91
2023/07/07 10:44:50;;;;;;;8.93;5.32;;;;;;;29.76;44.08;99191.31;4931116;29;20047;-93
2023/07/07 10:47:21;;;;;;;8.65;5.43;;;;;;;29.67;44.33;99184.56;4906170;29;20031;-92
2023/07/07 10:49:47;;;;;;;6.93;5.00;;;;;;;29.63;44.46;99173.47;4900459;29;20035;-91
2023/07/07 10:52:41;;;;;;;8.52;5.57;;;;;;;29.69;43.75;99174.66;4911785;29;20033;-93
2023/07/07 10:55:27;;;;;;;10.68;5.63;;;;;;;29.85;43.50;99190.88;4934546;29;20023;-91
2023/07/07 10:58:20;;;;;;;6.18;5.40;;;;;;;29.78;43.96;99177.81;4930439;29;20019;-94
2023/07/07 11:00:56;;;;;;;7.03;5.22;;;;;;;29.75;43.19;99136.97;4977353;23;20047;-94
2023/07/07 11:03:44;;;;;;;6.00;5.00;;;;;;;29.79;43.61;99154.41;4919643;29;20046;-94
2023/07/07 11:06:48;;;;;;;5.78;5.13;;;;;;;29.83;43.75;99168.28;4933364;29;20036;-96
2023/07/07 11:09:40;;;;;;;8.48;5.40;;;;;;;29.79;43.05;99164.72;4953804;29;20051;-91
2023/07/07 11:12:40;;;;;;;16.10;5.30;;;;;;;29.91;43.98;99160.72;4928291;29;20037;-92
2023/07/07 11:15:21;;;;;;;7.88;5.10;;;;;;;30.02;43.16;99162.22;4926601;29;20035;-91
2023/07/07 11:18:16;;;;;;;;;;;;;;;29.92;42.97;99173.38;4921241;29;20035;-92
2023/07/07 11:21:06;;;;;;;7.78;5.18;;;;;;;29.93;43.42;99167.44;4937215;29;19919;-93
2023/07/07 11:23:43;;;;;;;6.45;5.50;;;;;;;29.96;43.78;99163.84;4937809;29;20031;-91
2023/07/07 11:26:19;;;;;;;8.85;5.80;;;;;;;29.81;43.82;99154.78;4940143;29;20039;-90
2023/07/07 11:29:03;;;;;;;9.48;5.28;;;;;;;29.80;42.09;99142.13;4928684;29;20038;-91
2023/07/07 11:31:58;;;;;;;7.93;5.38;;;;;;;30.10;42.17;99157.41;4929763;29;20038;-91
2023/07/07 11:34:52;;;;;;;7.22;5.35;;;;;;;30.15;42.92;99147.88;4928789;29;20031;-90
2023/07/07 11:37:59;;;;;;;7.63;5.60;;;;;;;30.18;41.76;99147.06;4932718;29;20042;-90
2023/07/07 11:40:44;;;;;;;9.13;6.65;;;;;;;30.42;40.67;99140.56;4933416;29;20035;-90
2023/07/07 11:43:36;;;;;;;6.63;5.45;;;;;;;30.40;39.64;99114.38;4927845;29;20027;-91
2023/07/07 11:46:08;;;;;;;7.45;4.82;;;;;;;30.74;40.23;99128.38;4925496;29;20104;-91
2023/07/07 11:48:33;;;;;;;7.50;4.85;;;;;;;30.78;40.45;99139.47;4939424;29;20020;-88
2023/07/07 11:51:05;;;;;;;5.82;5.25;;;;;;;30.85;40.33;99131.06;4942762;29;20034;-90
2023/07/07 11:53:57;;;;;;;6.57;4.90;;;;;;;30.83;39.50;99120.34;4942931;29;20513;-91
2023/07/07 11:56:29;;;;;;;9.02;5.25;;;;;;;30.97;39.08;99130.56;4936696;29;20082;-89
2023/07/07 11:58:57;;;;;;;6.82;4.72;;;;;;;30.74;40.57;99138.72;4938922;29;20044;-90
2023/07/07 12:01:55;;;;;;;6.38;4.82;;;;;;;30.54;40.18;99128.16;4954732;29;20047;-90
2023/07/07 12:04:38;;;;;;;7.35;5.07;;;;;;;30.44;40.94;99131.03;4914708;28;20043;-89
2023/07/07 12:07:22;;;;;;;9.25;5.18;;;;;;;30.14;41.17;99097.09;4930617;29;20154;-91
2023/07/07 12:10:00;;;;;;;6.43;5.50;;;;;;;30.52;40.76;99124.22;4917842;29;20497;-90
2023/07/07 12:12:41;;;;;;;8.55;5.00;;;;;;;30.57;40.59;99113.47;4927928;29;20036;-91
2023/07/07 12:15:14;;;;;;;8.18;5.10;;;;;;;30.74;40.57;99097.81;4904198;29;20095;-88
2023/07/07 12:17:54;;;;;;;7.25;5.57;;;;;;;30.88;40.74;99119.16;4928210;29;20051;-91
2023/07/07 12:20:31;;;;;;;6.85;5.40;;;;;;;31.02;40.62;99113.44;4911139;29;20023;-90
2023/07/07 12:23:00;;;;;;;7.55;5.63;;;;;;;31.08;39.80;99102.66;4910765;29;20413;-89
2023/07/07 12:25:29;;;;;;;8.20;5.45;;;;;;;31.08;39.79;99118.56;4912466;29;20126;-91
2023/07/07 12:27:55;;;;;;;6.55;5.03;;;;;;;31.00;39.86;99090.84;4911010;29;20042;-92
2023/07/07 12:30:23;;;;;;;7.07;5.13;;;;;;;31.03;39.78;99100.34;4896471;29;20024;-90
2023/07/07 12:32:55;;;;;;;6.18;4.75;;;;;;;30.90;39.71;99088.13;4909784;29;20101;-91
2023/07/07 12:35:46;;;;;;;8.93;5.13;;;;;;;31.07;39.92;99092.75;4901797;29;20035;-90
2023/07/07 12:38:41;;;;;;;;;;;;;;;31.25;39.72;99100.84;4904114;29;20051;-90
2023/07/07 12:41:13;;;;;;;7.10;4.28;;;;;;;31.35;37.89;99105.50;4936542;29;19964;-90
2023/07/07 12:43:48;;;;;;;6.25;4.82;;;;;;;31.21;38.59;99083.41;4909543;29;20038;-91